createdAt,value
2019-06-07T00:00:39.421Z,8.91
2019-06-07T00:01:23.657Z,9.00
2019-06-07T00:02:22.648Z,8.98
2019-06-07T00:03:29.676Z,8.82
2019-06-07T00:04:23.626Z,8.86
2019-06-07T00:05:22.628Z,8.80
2019-06-07T00:06:25.362Z,8.83
2019-06-07T00:07:22.607Z,8.75
2019-06-07T00:08:27.934Z,8.70
2019-06-07T00:09:23.572Z,8.70
2019-06-07T00:10:36.189Z,8.70
2019-06-07T00:11:23.547Z,8.65
2019-06-07T00:12:22.537Z,8.73
2019-06-07T00:13:22.544Z,8.65
2019-06-07T00:14:22.553Z,8.60
2019-06-07T00:15:28.791Z,8.57
2019-06-07T00:16:23.647Z,8.61
2019-06-07T00:17:22.484Z,8.68
2019-06-07T00:18:25.962Z,8.63
2019-06-07T00:19:22.460Z,8.65
2019-06-07T00:20:23.581Z,8.68
2019-06-07T00:22:12.147Z,8.57
2019-06-07T00:22:32.619Z,8.58
2019-06-07T00:23:23.432Z,8.83
2019-06-07T00:24:22.408Z,8.89
2019-06-07T00:25:24.560Z,8.78
2019-06-07T00:26:22.388Z,8.85
2019-06-07T00:27:22.796Z,8.86
2019-06-07T00:28:22.412Z,8.79
2019-06-07T00:29:22.386Z,8.73
2019-06-07T00:30:41.094Z,8.75
2019-06-07T00:31:24.740Z,8.70
2019-06-07T00:32:22.486Z,8.65
2019-06-07T00:33:24.777Z,8.68
2019-06-07T00:34:23.204Z,8.70
2019-06-07T00:35:22.559Z,8.71
2019-06-07T00:36:23.294Z,8.67
2019-06-07T00:37:25.250Z,8.82
2019-06-07T00:38:22.257Z,8.91
2019-06-07T00:39:25.651Z,8.85
2019-06-07T00:40:31.441Z,8.78
2019-06-07T00:41:23.224Z,8.73
2019-06-07T00:42:24.234Z,8.73
2019-06-07T00:43:27.937Z,8.64
2019-06-07T00:44:23.658Z,8.63
2019-06-07T00:45:24.474Z,8.65
2019-06-07T00:46:25.286Z,8.67
2019-06-07T00:47:23.687Z,8.67
2019-06-07T00:48:31.778Z,8.57
2019-06-07T00:49:40.005Z,8.58
2019-06-07T00:50:24.332Z,8.54
2019-06-07T00:51:24.078Z,8.49
2019-06-07T00:53:11.645Z,8.42
2019-06-07T00:53:31.498Z,8.40
2019-06-07T00:54:24.730Z,8.28
2019-06-07T00:55:27.099Z,8.34
2019-06-07T00:56:23.535Z,8.20
2019-06-07T00:57:24.135Z,8.25
2019-06-07T00:58:27.461Z,8.24
2019-06-07T00:59:28.838Z,8.18
2019-06-07T01:00:25.486Z,8.14
2019-06-07T01:01:24.844Z,7.99
2019-06-07T01:02:26.007Z,7.99
2019-06-07T01:03:25.712Z,8.02
2019-06-07T01:04:23.679Z,7.92
2019-06-07T01:05:26.182Z,7.85
2019-06-07T01:06:24.813Z,7.91
2019-06-07T01:07:24.294Z,7.79
2019-06-07T01:08:27.550Z,7.79
2019-06-07T01:09:25.288Z,7.76
2019-06-07T01:10:50.170Z,7.70
2019-06-07T01:11:25.722Z,7.73
2019-06-07T01:12:23.883Z,7.66
2019-06-07T01:13:24.178Z,7.63
2019-06-07T01:14:24.526Z,7.63
2019-06-07T01:15:28.786Z,7.66
2019-06-07T01:16:25.721Z,7.57
2019-06-07T01:17:32.974Z,7.51
2019-06-07T01:18:37.321Z,7.44
2019-06-07T01:19:26.481Z,7.41
2019-06-07T01:20:24.179Z,7.29
2019-06-07T01:21:26.444Z,7.37
2019-06-07T01:22:27.108Z,7.24
2019-06-07T01:23:59.773Z,7.27
2019-06-07T01:24:25.672Z,7.33
2019-06-07T01:25:22.761Z,7.26
2019-06-07T01:26:24.163Z,7.39
2019-06-07T01:27:25.441Z,7.39
2019-06-07T01:28:24.842Z,7.51
2019-06-07T01:29:25.008Z,7.50
2019-06-07T01:30:23.251Z,7.34
2019-06-07T01:31:24.852Z,7.36
2019-06-07T01:32:24.676Z,7.42
2019-06-07T01:33:25.705Z,7.37
2019-06-07T01:34:25.706Z,7.29
2019-06-07T01:35:22.112Z,7.26
2019-06-07T01:36:24.375Z,7.29
2019-06-07T01:37:24.899Z,7.18
2019-06-07T01:38:24.486Z,7.23
2019-06-07T01:39:24.074Z,7.24
2019-06-07T01:40:27.758Z,7.30
2019-06-07T01:41:25.349Z,7.24
2019-06-07T01:42:24.571Z,7.19
2019-06-07T01:43:26.168Z,7.15
2019-06-07T01:44:27.306Z,7.16
2019-06-07T01:45:23.652Z,7.19
2019-06-07T01:46:25.353Z,7.14
2019-06-07T01:47:25.575Z,7.21
2019-06-07T01:48:25.411Z,7.18
2019-06-07T01:49:24.765Z,7.08
2019-06-07T01:50:24.752Z,7.01
2019-06-07T01:51:24.280Z,7.15
2019-06-07T01:52:23.511Z,6.99
2019-06-07T01:53:23.717Z,6.99
2019-06-07T01:55:23.956Z,6.99
2019-06-07T01:56:22.578Z,6.96
2019-06-07T01:57:43.189Z,6.97
2019-06-07T01:58:26.112Z,7.01
2019-06-07T01:59:23.142Z,6.99
2019-06-07T02:00:23.222Z,7.01
2019-06-07T02:01:23.320Z,6.82
2019-06-07T02:02:22.837Z,6.82
2019-06-07T02:03:25.847Z,6.82
2019-06-07T02:04:23.379Z,6.79
2019-06-07T02:05:23.179Z,6.64
2019-06-07T02:06:23.764Z,6.65
2019-06-07T02:07:26.909Z,6.55
2019-06-07T02:08:24.502Z,6.72
2019-06-07T02:09:23.368Z,6.60
2019-06-07T02:10:25.744Z,6.60
2019-06-07T02:11:23.786Z,6.71
2019-06-07T02:12:28.187Z,6.64
2019-06-07T02:13:23.745Z,6.63
2019-06-07T02:14:23.411Z,6.57
2019-06-07T02:15:23.153Z,6.55
2019-06-07T02:16:21.806Z,6.58
2019-06-07T02:17:25.209Z,6.61
2019-06-07T02:18:23.804Z,6.61
2019-06-07T02:19:22.034Z,6.53
2019-06-07T02:20:23.863Z,6.55
2019-06-07T02:21:24.665Z,6.55
2019-06-07T02:22:23.130Z,6.54
2019-06-07T02:23:23.238Z,6.58
2019-06-07T02:24:24.706Z,6.55
2019-06-07T02:25:38.297Z,6.53
2019-06-07T02:26:22.887Z,6.51
2019-06-07T02:27:24.220Z,6.54
2019-06-07T02:28:30.957Z,6.51
2019-06-07T02:29:22.910Z,6.58
2019-06-07T02:30:43.649Z,6.55
2019-06-07T02:31:24.382Z,6.54
2019-06-07T02:32:24.252Z,6.53
2019-06-07T02:33:25.836Z,6.51
2019-06-07T02:34:24.052Z,6.46
2019-06-07T02:35:25.606Z,6.45
2019-06-07T02:36:25.704Z,6.54
2019-06-07T02:37:24.200Z,6.50
2019-06-07T02:38:23.128Z,6.48
2019-06-07T02:39:23.945Z,6.46
2019-06-07T02:40:22.067Z,6.53
2019-06-07T02:41:25.815Z,6.46
2019-06-07T02:42:26.165Z,6.53
2019-06-07T02:43:22.152Z,6.38
2019-06-07T02:44:23.144Z,6.32
2019-06-07T02:45:24.142Z,6.36
2019-06-07T02:46:27.722Z,6.32
2019-06-07T02:47:22.760Z,6.51
2019-06-07T02:48:20.855Z,6.45
2019-06-07T02:49:20.872Z,6.54
2019-06-07T02:50:20.843Z,6.55
2019-06-07T02:51:20.832Z,6.50
2019-06-07T02:52:20.806Z,6.45
2019-06-07T02:53:20.800Z,6.32
2019-06-07T02:54:20.791Z,6.33
2019-06-07T02:55:20.794Z,6.36
2019-06-07T02:56:39.841Z,6.36
2019-06-07T02:57:21.752Z,6.38
2019-06-07T02:58:20.744Z,6.51
2019-06-07T02:59:45.643Z,6.42
2019-06-07T03:00:45.902Z,6.38
2019-06-07T03:01:21.763Z,6.21
2019-06-07T03:02:20.702Z,6.21
2019-06-07T03:03:22.278Z,6.20
2019-06-07T03:04:20.677Z,6.24
2019-06-07T03:05:20.669Z,6.35
2019-06-07T03:06:20.676Z,6.30
2019-06-07T03:07:20.646Z,6.35
2019-06-07T03:08:20.671Z,6.27
2019-06-07T03:09:20.627Z,6.21
2019-06-07T03:10:20.612Z,6.17
2019-06-07T03:11:20.614Z,6.14
2019-06-07T03:12:20.601Z,6.14
2019-06-07T03:13:20.581Z,6.14
2019-06-07T03:14:20.593Z,6.13
2019-06-07T03:15:32.895Z,6.38
2019-06-07T03:16:21.563Z,6.63
2019-06-07T03:17:20.542Z,6.86
2019-06-07T03:18:20.526Z,6.89
2019-06-07T03:19:20.531Z,6.96
2019-06-07T03:20:20.520Z,6.89
2019-06-07T03:21:20.529Z,6.64
2019-06-07T03:22:20.483Z,6.57
2019-06-07T03:23:20.475Z,6.48
2019-06-07T03:24:20.463Z,6.51
2019-06-07T03:25:20.452Z,6.58
2019-06-07T03:26:20.453Z,6.50
2019-06-07T03:27:34.888Z,6.48
2019-06-07T03:28:21.417Z,6.46
2019-06-07T03:29:20.411Z,6.43
2019-06-07T03:30:38.826Z,6.43
2019-06-07T03:31:21.413Z,6.39
2019-06-07T03:32:20.378Z,6.46
2019-06-07T03:33:20.404Z,6.54
2019-06-07T03:34:20.362Z,6.53
2019-06-07T03:35:20.343Z,6.42
2019-06-07T03:36:25.459Z,6.46
2019-06-07T03:37:21.320Z,6.51
2019-06-07T03:38:20.357Z,6.36
2019-06-07T03:39:20.301Z,6.36
2019-06-07T03:40:20.320Z,6.38
2019-06-07T03:41:20.307Z,6.30
2019-06-07T03:42:20.275Z,6.27
2019-06-07T03:43:20.258Z,6.27
2019-06-07T03:44:20.254Z,6.38
2019-06-07T03:45:20.245Z,6.30
2019-06-07T03:46:20.239Z,6.19
2019-06-07T03:47:20.308Z,6.24
2019-06-07T03:48:20.253Z,6.21
2019-06-07T03:49:20.196Z,6.24
2019-06-07T03:50:20.183Z,6.33
2019-06-07T03:51:25.152Z,6.36
2019-06-07T03:52:21.161Z,6.36
2019-06-07T03:53:20.157Z,6.24
2019-06-07T03:54:20.165Z,6.24
2019-06-07T03:55:20.167Z,6.39
2019-06-07T03:56:20.119Z,6.20
2019-06-07T03:57:20.120Z,6.30
2019-06-07T03:58:47.981Z,6.40
2019-06-07T03:59:21.090Z,6.36
2019-06-07T04:00:20.079Z,6.39
2019-06-07T04:01:20.122Z,6.38
2019-06-07T04:02:20.070Z,6.46
2019-06-07T04:03:33.296Z,6.64
2019-06-07T04:04:21.036Z,6.69
2019-06-07T04:05:20.049Z,6.82
2019-06-07T04:06:20.016Z,6.76
2019-06-07T04:07:20.043Z,6.78
2019-06-07T04:08:20.036Z,6.78
2019-06-07T04:09:19.977Z,6.76
2019-06-07T04:10:41.210Z,6.82
2019-06-07T04:11:20.958Z,6.91
2019-06-07T04:12:19.968Z,6.91
2019-06-07T04:13:19.938Z,6.89
2019-06-07T04:14:19.964Z,6.99
2019-06-07T04:15:19.917Z,6.91
2019-06-07T04:16:19.904Z,7.01
2019-06-07T04:17:19.917Z,6.96
2019-06-07T04:18:19.887Z,7.14
2019-06-07T04:19:19.874Z,7.14
2019-06-07T04:20:19.860Z,7.12
2019-06-07T04:21:19.873Z,7.14
2019-06-07T04:22:19.967Z,7.12
2019-06-07T04:23:29.866Z,7.27
2019-06-07T04:24:20.818Z,7.37
2019-06-07T04:25:19.809Z,7.60
2019-06-07T04:26:19.795Z,7.91
2019-06-07T04:27:19.799Z,8.02
2019-06-07T04:28:19.777Z,7.99
2019-06-07T04:29:56.805Z,8.28
2019-06-07T04:30:20.758Z,8.29
2019-06-07T04:31:19.740Z,8.31
2019-06-07T04:32:19.740Z,8.28
2019-06-07T04:33:19.720Z,8.34
2019-06-07T04:34:19.720Z,8.32
2019-06-07T04:35:19.697Z,8.34
2019-06-07T04:36:38.938Z,8.32
2019-06-07T04:37:20.708Z,8.32
2019-06-07T04:38:19.686Z,8.42
2019-06-07T04:39:19.657Z,8.40
2019-06-07T04:40:19.644Z,8.45
2019-06-07T04:41:19.642Z,8.67
2019-06-07T04:42:19.672Z,8.75
2019-06-07T04:43:19.652Z,8.80
2019-06-07T04:44:19.598Z,8.91
2019-06-07T04:45:33.734Z,8.88
2019-06-07T04:46:20.580Z,9.10
2019-06-07T04:47:19.578Z,9.04
2019-06-07T04:48:19.555Z,9.17
2019-06-07T04:49:19.567Z,9.32
2019-06-07T04:50:19.535Z,9.48
2019-06-07T04:51:19.552Z,9.53
2019-06-07T04:52:19.524Z,9.68
2019-06-07T04:53:19.504Z,9.65
2019-06-07T04:54:19.492Z,9.73
2019-06-07T04:55:19.500Z,9.78
2019-06-07T04:56:19.490Z,9.99
2019-06-07T04:57:19.461Z,10.31
2019-06-07T04:58:19.463Z,10.62
2019-06-07T05:00:00.747Z,10.99
2019-06-07T05:00:47.194Z,11.19
2019-06-07T05:01:27.162Z,11.45
2019-06-07T05:02:20.416Z,11.44
2019-06-07T05:03:19.455Z,11.67
2019-06-07T05:04:19.384Z,11.93
2019-06-07T05:05:19.372Z,11.98
2019-06-07T05:06:19.368Z,12.26
2019-06-07T05:07:19.350Z,12.52
2019-06-07T05:08:27.898Z,12.62
2019-06-07T05:09:20.334Z,12.63
2019-06-07T05:10:19.414Z,12.80
2019-06-07T05:11:19.334Z,12.98
2019-06-07T05:12:19.295Z,13.27
2019-06-07T05:13:19.320Z,13.47
2019-06-07T05:14:19.285Z,13.66
2019-06-07T05:15:19.363Z,13.87
2019-06-07T05:16:19.275Z,13.71
2019-06-07T05:17:19.260Z,13.72
2019-06-07T05:18:19.350Z,13.53
2019-06-07T05:19:19.281Z,13.13
2019-06-07T05:20:19.219Z,13.16
2019-06-07T05:21:19.237Z,13.24
2019-06-07T05:22:19.187Z,13.46
2019-06-07T05:24:00.165Z,13.21
2019-06-07T05:24:20.187Z,12.89
2019-06-07T05:25:19.183Z,12.95
2019-06-07T05:26:19.144Z,13.46
2019-06-07T05:27:19.134Z,13.75
2019-06-07T05:28:19.133Z,13.79
2019-06-07T05:29:19.170Z,13.31
2019-06-07T05:30:57.700Z,13.17
2019-06-07T05:31:20.094Z,13.06
2019-06-07T05:32:19.085Z,13.07
2019-06-07T05:33:19.116Z,13.01
2019-06-07T05:34:19.057Z,13.13
2019-06-07T05:35:19.054Z,13.28
2019-06-07T05:36:19.079Z,13.46
2019-06-07T05:37:19.048Z,13.79
2019-06-07T05:38:19.056Z,14.12
2019-06-07T05:39:19.002Z,14.41
2019-06-07T05:40:19.021Z,14.26
2019-06-07T05:41:19.009Z,14.30
2019-06-07T05:42:18.971Z,14.48
2019-06-07T05:43:18.972Z,14.53
2019-06-07T05:44:18.971Z,14.98
2019-06-07T05:45:18.955Z,15.07
2019-06-07T05:46:18.950Z,15.38
2019-06-07T05:47:18.977Z,15.60
2019-06-07T05:48:18.933Z,15.92
2019-06-07T05:49:18.906Z,16.07
2019-06-07T05:50:39.299Z,16.69
2019-06-07T05:51:19.886Z,17.03
2019-06-07T05:52:18.872Z,17.30
2019-06-07T05:53:18.879Z,17.40
2019-06-07T05:54:18.891Z,17.66
2019-06-07T05:55:18.848Z,17.71
2019-06-07T05:56:18.907Z,17.91
2019-06-07T05:57:18.825Z,18.17
2019-06-07T05:58:19.075Z,18.38
2019-06-07T05:59:18.799Z,18.71
2019-06-07T06:00:18.783Z,18.72
2019-06-07T06:01:42.943Z,18.96
2019-06-07T06:02:24.596Z,18.93
2019-06-07T06:03:19.803Z,18.53
2019-06-07T06:04:18.733Z,18.76
2019-06-07T06:05:33.689Z,19.27
2019-06-07T06:06:19.750Z,19.78
2019-06-07T06:07:18.713Z,19.94
2019-06-07T06:08:18.829Z,20.37
2019-06-07T06:09:18.704Z,21.03
2019-06-07T06:10:18.757Z,21.03
2019-06-07T06:11:18.664Z,20.17
2019-06-07T06:12:33.944Z,19.50
2019-06-07T06:13:19.636Z,19.38
2019-06-07T06:14:18.642Z,18.72
2019-06-07T06:15:18.621Z,18.74
2019-06-07T06:16:18.597Z,18.78
2019-06-07T06:17:18.613Z,18.87
2019-06-07T06:18:18.601Z,18.97
2019-06-07T06:19:18.596Z,19.34
2019-06-07T06:20:18.580Z,19.61
2019-06-07T06:21:20.224Z,19.83
2019-06-07T06:22:18.547Z,20.07
2019-06-07T06:23:18.586Z,20.17
2019-06-07T06:24:18.563Z,20.27
2019-06-07T06:25:34.510Z,20.57
2019-06-07T06:26:19.502Z,20.56
2019-06-07T06:27:55.616Z,20.44
2019-06-07T06:28:19.489Z,20.72
2019-06-07T06:29:18.487Z,20.64
2019-06-07T06:30:18.457Z,19.67
2019-06-07T06:31:18.459Z,19.01
2019-06-07T06:33:32.939Z,18.69
2019-06-07T06:34:19.428Z,18.69
2019-06-07T06:35:18.429Z,18.35
2019-06-07T06:36:18.509Z,18.64
2019-06-07T06:37:18.378Z,18.68
2019-06-07T06:38:18.377Z,19.09
2019-06-07T06:39:18.443Z,19.15
2019-06-07T06:40:18.346Z,19.05
2019-06-07T06:41:18.335Z,18.11
2019-06-07T06:42:18.341Z,18.16
2019-06-07T06:43:18.324Z,18.11
2019-06-07T06:44:18.308Z,17.79
2019-06-07T06:45:18.293Z,17.35
2019-06-07T06:46:37.519Z,17.32
2019-06-07T06:47:19.263Z,17.14
2019-06-07T06:48:18.275Z,17.45
2019-06-07T06:49:18.674Z,18.19
2019-06-07T06:50:18.237Z,19.01
2019-06-07T06:51:18.234Z,19.62
2019-06-07T06:52:18.285Z,19.13
2019-06-07T06:53:18.221Z,18.78
2019-06-07T06:54:39.305Z,19.05
2019-06-07T06:55:19.226Z,19.34
2019-06-07T06:56:18.210Z,19.53
2019-06-07T06:57:20.305Z,19.43
2019-06-07T06:58:18.169Z,19.70
2019-06-07T07:00:19.129Z,20.26
2019-06-07T07:01:18.127Z,20.34
2019-06-07T07:02:18.092Z,19.97
2019-06-07T07:04:19.142Z,20.64
2019-06-07T07:05:18.077Z,21.00
2019-06-07T07:06:26.057Z,21.36
2019-06-07T07:07:19.038Z,21.36
2019-06-07T07:08:18.049Z,19.85
2019-06-07T07:09:18.041Z,19.21
2019-06-07T07:10:18.070Z,19.95
2019-06-07T07:11:18.028Z,20.23
2019-06-07T07:12:17.998Z,19.25
2019-06-07T07:13:17.987Z,19.64
2019-06-07T07:14:17.976Z,19.95
2019-06-07T07:15:17.973Z,20.48
2019-06-07T07:16:17.938Z,21.19
2019-06-07T07:17:17.932Z,21.75
2019-06-07T07:18:17.945Z,22.02
2019-06-07T07:19:17.998Z,22.38
2019-06-07T07:20:17.927Z,22.01
2019-06-07T07:21:17.962Z,21.98
2019-06-07T07:22:17.936Z,21.63
2019-06-07T07:23:17.887Z,21.75
2019-06-07T07:24:21.799Z,21.99
2019-06-07T07:25:17.856Z,21.83
2019-06-07T07:26:17.873Z,22.12
2019-06-07T07:27:17.859Z,21.99
2019-06-07T07:28:17.814Z,22.35
2019-06-07T07:29:17.809Z,22.88
2019-06-07T07:30:36.143Z,23.26
2019-06-07T07:31:18.797Z,23.52
2019-06-07T07:32:17.817Z,23.69
2019-06-07T07:33:17.791Z,23.84
2019-06-07T07:34:33.999Z,24.12
2019-06-07T07:35:18.768Z,23.56
2019-06-07T07:36:37.587Z,23.34
2019-06-07T07:37:18.755Z,23.38
2019-06-07T07:38:17.730Z,23.53
2019-06-07T07:39:17.695Z,22.30
2019-06-07T07:41:18.669Z,21.55
2019-06-07T07:42:21.572Z,21.98
2019-06-07T07:43:17.724Z,21.99
2019-06-07T07:44:17.652Z,21.45
2019-06-07T07:45:17.639Z,21.75
2019-06-07T07:46:29.189Z,21.22
2019-06-07T07:47:18.611Z,21.28
2019-06-07T07:48:18.638Z,21.22
2019-06-07T07:49:17.591Z,21.98
2019-06-07T07:50:17.591Z,22.42
2019-06-07T07:51:17.566Z,22.30
2019-06-07T07:52:17.578Z,21.67
2019-06-07T07:53:17.644Z,21.06
2019-06-07T07:54:17.538Z,21.38
2019-06-07T07:55:17.620Z,21.58
2019-06-07T07:56:17.522Z,22.42
2019-06-07T07:57:17.497Z,23.06
2019-06-07T07:58:17.526Z,23.56
2019-06-07T07:59:17.499Z,23.68
2019-06-07T08:00:49.263Z,23.84
2019-06-07T08:01:18.464Z,24.04
2019-06-07T08:02:17.439Z,24.24
2019-06-07T08:03:17.486Z,23.81
2019-06-07T08:04:17.473Z,23.14
2019-06-07T08:05:25.712Z,23.38
2019-06-07T08:06:18.444Z,23.59
2019-06-07T08:07:17.460Z,23.64
2019-06-07T08:08:17.424Z,23.81
2019-06-07T08:09:17.373Z,24.53
2019-06-07T08:10:17.399Z,24.51
2019-06-07T08:11:17.353Z,24.37
2019-06-07T08:12:17.336Z,23.79
2019-06-07T08:13:25.444Z,23.97
2019-06-07T08:14:18.301Z,23.93
2019-06-07T08:15:17.305Z,24.34
2019-06-07T08:16:18.843Z,24.66
2019-06-07T08:17:17.305Z,24.66
2019-06-07T08:18:17.275Z,24.16
2019-06-07T08:19:17.258Z,23.94
2019-06-07T08:20:17.259Z,24.23
2019-06-07T08:21:25.738Z,24.49
2019-06-07T08:22:18.222Z,24.92
2019-06-07T08:23:17.206Z,25.34
2019-06-07T08:24:17.200Z,25.45
2019-06-07T08:25:17.194Z,25.67
2019-06-07T08:26:17.174Z,25.76
2019-06-07T08:27:25.803Z,25.82
2019-06-07T08:28:18.151Z,25.85
2019-06-07T08:29:17.140Z,25.76
2019-06-07T08:30:47.366Z,25.59
2019-06-07T08:31:18.150Z,25.61
2019-06-07T08:32:17.138Z,25.61
2019-06-07T08:33:26.101Z,25.57
2019-06-07T08:34:18.100Z,25.61
2019-06-07T08:36:02.464Z,25.69
2019-06-07T08:36:25.183Z,25.48
2019-06-07T08:37:18.059Z,25.27
2019-06-07T08:38:29.873Z,25.54
2019-06-07T08:39:18.069Z,25.69
2019-06-07T08:40:17.056Z,25.94
2019-06-07T08:41:17.024Z,26.11
2019-06-07T08:42:21.942Z,26.28
2019-06-07T08:43:21.038Z,26.38
2019-06-07T08:44:23.676Z,26.16
2019-06-07T08:45:17.970Z,26.47
2019-06-07T08:46:16.970Z,26.60
2019-06-07T08:47:20.899Z,25.78
2019-06-07T08:48:27.505Z,25.09
2019-06-07T08:49:17.923Z,25.12
2019-06-07T08:50:16.934Z,25.56
2019-06-07T08:51:16.923Z,25.61
2019-06-07T08:52:16.909Z,25.75
2019-06-07T08:53:16.888Z,25.51
2019-06-07T08:54:22.966Z,25.01
2019-06-07T08:55:17.868Z,24.89
2019-06-07T08:56:16.874Z,25.23
2019-06-07T08:57:21.352Z,25.44
2019-06-07T08:58:17.888Z,25.17
2019-06-07T08:59:16.822Z,25.02
2019-06-07T09:00:42.945Z,25.29
2019-06-07T09:01:17.806Z,25.59
2019-06-07T09:02:23.619Z,25.76
2019-06-07T09:03:17.799Z,25.86
2019-06-07T09:04:16.763Z,25.96
2019-06-07T09:05:16.765Z,25.76
2019-06-07T09:07:01.192Z,25.69
2019-06-07T09:07:19.794Z,25.49
2019-06-07T09:08:30.389Z,25.46
2019-06-07T09:09:17.729Z,25.79
2019-06-07T09:10:16.723Z,25.94
2019-06-07T09:11:16.697Z,25.69
2019-06-07T09:12:16.678Z,25.36
2019-06-07T09:13:16.665Z,25.27
2019-06-07T09:14:16.669Z,24.75
2019-06-07T09:15:23.616Z,24.80
2019-06-07T09:16:17.666Z,25.45
2019-06-07T09:17:16.643Z,25.57
2019-06-07T09:18:40.903Z,24.66
2019-06-07T09:19:17.605Z,24.80
2019-06-07T09:20:35.554Z,25.34
2019-06-07T09:21:17.615Z,25.63
2019-06-07T09:22:16.576Z,25.64
2019-06-07T09:23:17.770Z,25.89
2019-06-07T09:24:16.551Z,26.38
2019-06-07T09:25:20.882Z,26.72
2019-06-07T09:26:18.916Z,26.90
2019-06-07T09:27:16.540Z,27.01
2019-06-07T09:28:20.282Z,27.39
2019-06-07T09:29:16.524Z,27.38
2019-06-07T09:30:19.014Z,27.31
2019-06-07T09:31:16.486Z,27.58
2019-06-07T09:32:18.623Z,27.65
2019-06-07T09:33:16.455Z,27.78
2019-06-07T09:34:16.451Z,27.09
2019-06-07T09:35:17.423Z,26.78
2019-06-07T09:36:16.437Z,26.68
2019-06-07T09:38:03.693Z,27.12
2019-06-07T09:38:25.814Z,27.20
2019-06-07T09:39:17.386Z,26.86
2019-06-07T09:40:27.112Z,26.91
2019-06-07T09:41:17.380Z,27.03
2019-06-07T09:42:16.367Z,26.88
2019-06-07T09:43:59.815Z,26.44
2019-06-07T09:44:24.675Z,26.53
2019-06-07T09:45:17.326Z,26.93
2019-06-07T09:46:16.927Z,26.71
2019-06-07T09:47:31.183Z,26.71
2019-06-07T09:49:01.329Z,27.11
2019-06-07T09:49:30.706Z,27.43
2019-06-07T09:50:17.275Z,27.50
2019-06-07T09:51:19.720Z,27.66
2019-06-07T09:52:16.254Z,27.71
2019-06-07T09:53:22.493Z,27.95
2019-06-07T09:55:02.099Z,28.28
2019-06-07T09:55:24.311Z,28.45
2019-06-07T09:56:17.224Z,28.50
2019-06-07T09:57:17.700Z,28.40
2019-06-07T09:58:51.005Z,28.23
2019-06-07T09:59:17.178Z,27.49
2019-06-07T10:00:40.080Z,27.20
2019-06-07T10:01:17.174Z,26.68
2019-06-07T10:02:16.160Z,26.66
2019-06-07T10:03:21.329Z,26.88
2019-06-07T10:04:30.811Z,26.72
2019-06-07T10:05:17.125Z,26.49
2019-06-07T10:06:16.119Z,26.49
2019-06-07T10:07:30.762Z,26.71
2019-06-07T10:09:26.142Z,26.83
2019-06-07T10:11:17.081Z,27.84
2019-06-07T10:12:16.052Z,27.96
2019-06-07T10:13:16.035Z,27.76
2019-06-07T10:14:16.045Z,28.21
2019-06-07T10:15:16.022Z,27.86
2019-06-07T10:16:16.047Z,27.53
2019-06-07T10:17:16.018Z,27.55
2019-06-07T10:18:16.001Z,27.72
2019-06-07T10:19:16.013Z,27.78
2019-06-07T10:20:15.973Z,27.66
2019-06-07T10:21:15.958Z,27.24
2019-06-07T10:22:15.972Z,27.11
2019-06-07T10:23:15.931Z,26.83
2019-06-07T10:24:15.927Z,27.02
2019-06-07T10:25:15.912Z,27.38
2019-06-07T10:26:15.903Z,27.16
2019-06-07T10:27:15.905Z,27.38
2019-06-07T10:28:15.881Z,27.74
2019-06-07T10:29:15.874Z,28.13
2019-06-07T10:30:15.868Z,28.13
2019-06-07T10:31:15.849Z,28.18
2019-06-07T10:32:15.850Z,28.46
2019-06-07T10:33:15.828Z,28.42
2019-06-07T10:34:15.825Z,28.64
2019-06-07T10:35:16.649Z,28.87
2019-06-07T10:36:15.807Z,29.11
2019-06-07T10:37:16.045Z,29.14
2019-06-07T10:38:15.782Z,29.33
2019-06-07T10:39:15.775Z,29.51
2019-06-07T10:40:15.757Z,29.55
2019-06-07T10:41:15.756Z,29.55
2019-06-07T10:42:15.757Z,29.84
2019-06-07T10:43:15.744Z,30.00
2019-06-07T10:44:15.733Z,29.70
2019-06-07T10:45:15.711Z,29.63
2019-06-07T10:46:15.721Z,29.36
2019-06-07T10:47:15.705Z,29.41
2019-06-07T10:48:15.689Z,29.35
2019-06-07T10:49:15.681Z,29.39
2019-06-07T10:50:15.666Z,29.54
2019-06-07T10:51:15.654Z,29.42
2019-06-07T10:52:15.721Z,29.02
2019-06-07T10:53:15.633Z,28.52
2019-06-07T10:54:25.831Z,28.30
2019-06-07T10:55:16.614Z,28.33
2019-06-07T10:56:15.601Z,28.43
2019-06-07T10:57:16.351Z,28.67
2019-06-07T10:58:15.590Z,28.42
2019-06-07T10:59:15.585Z,28.24
2019-06-07T11:00:15.564Z,27.93
2019-06-07T11:01:15.571Z,27.66
2019-06-07T11:02:15.565Z,27.27
2019-06-07T11:03:15.539Z,27.59
2019-06-07T11:04:15.532Z,27.35
2019-06-07T11:05:15.516Z,27.72
2019-06-07T11:06:15.505Z,27.71
2019-06-07T11:07:15.507Z,27.80
2019-06-07T11:08:15.487Z,28.13
2019-06-07T11:09:15.474Z,28.24
2019-06-07T11:10:19.392Z,27.31
2019-06-07T11:11:15.453Z,26.79
2019-06-07T11:12:15.520Z,26.78
2019-06-07T11:13:15.441Z,26.73
2019-06-07T11:14:15.429Z,26.88
2019-06-07T11:15:15.418Z,27.20
2019-06-07T11:16:15.856Z,27.31
2019-06-07T11:17:15.887Z,27.15
2019-06-07T11:18:15.390Z,27.39
2019-06-07T11:19:17.756Z,27.77
2019-06-07T11:20:15.368Z,27.76
2019-06-07T11:21:15.361Z,27.74
2019-06-07T11:22:15.363Z,27.72
2019-06-07T11:23:15.344Z,27.77
2019-06-07T11:24:18.658Z,27.93
2019-06-07T11:25:16.320Z,28.13
2019-06-07T11:26:15.316Z,28.32
2019-06-07T11:27:16.354Z,28.57
2019-06-07T11:28:15.289Z,28.60
2019-06-07T11:29:15.280Z,28.52
2019-06-07T11:30:15.274Z,28.11
2019-06-07T11:31:15.285Z,28.39
2019-06-07T11:32:15.272Z,28.54
2019-06-07T11:33:16.501Z,28.72
2019-06-07T11:34:15.231Z,28.77
2019-06-07T11:35:15.598Z,28.77
2019-06-07T11:36:15.437Z,29.14
2019-06-07T11:37:16.169Z,29.49
2019-06-07T11:38:15.194Z,29.58
2019-06-07T11:39:15.287Z,29.49
2019-06-07T11:40:30.224Z,29.39
2019-06-07T11:41:16.166Z,29.35
2019-06-07T11:42:15.170Z,29.55
2019-06-07T11:43:15.145Z,29.78
2019-06-07T11:44:15.139Z,29.85
2019-06-07T11:45:15.520Z,30.15
2019-06-07T11:46:15.269Z,30.13
2019-06-07T11:47:15.298Z,30.16
2019-06-07T11:48:15.536Z,29.74
2019-06-07T11:49:20.370Z,29.60
2019-06-07T11:50:16.088Z,29.69
2019-06-07T11:51:15.081Z,29.54
2019-06-07T11:52:15.814Z,29.32
2019-06-07T11:53:15.065Z,29.39
2019-06-07T11:54:16.245Z,29.36
2019-06-07T11:55:15.789Z,29.42
2019-06-07T11:56:16.033Z,29.45
2019-06-07T11:57:15.212Z,29.58
2019-06-07T11:58:18.991Z,28.39
2019-06-07T11:59:17.340Z,27.31
2019-06-07T12:00:16.445Z,26.53
2019-06-07T12:01:16.749Z,27.05
2019-06-07T12:02:15.499Z,27.65
2019-06-07T12:03:15.842Z,28.09
2019-06-07T12:04:31.092Z,28.55
2019-06-07T12:05:18.394Z,29.18
2019-06-07T12:06:16.269Z,29.60
2019-06-07T12:07:15.812Z,29.71
2019-06-07T12:08:15.879Z,29.79
2019-06-07T12:09:16.664Z,30.04
2019-06-07T12:10:19.117Z,30.08
2019-06-07T12:11:16.501Z,30.22
2019-06-07T12:12:14.881Z,30.37
2019-06-07T12:13:15.563Z,30.67
2019-06-07T12:14:14.868Z,30.94
2019-06-07T12:15:15.108Z,30.15
2019-06-07T12:16:15.419Z,30.16
2019-06-07T12:17:15.458Z,30.46
2019-06-07T12:18:15.188Z,30.32
2019-06-07T12:19:15.527Z,29.73
2019-06-07T12:20:16.737Z,29.57
2019-06-07T12:21:15.824Z,29.99
2019-06-07T12:22:15.847Z,30.21
2019-06-07T12:23:16.019Z,30.38
2019-06-07T12:24:16.121Z,30.60
2019-06-07T12:25:19.718Z,30.67
2019-06-07T12:26:16.580Z,30.76
2019-06-07T12:27:14.845Z,30.63
2019-06-07T12:28:14.742Z,30.68
2019-06-07T12:29:14.963Z,30.56
2019-06-07T12:30:23.120Z,30.48
2019-06-07T12:31:17.076Z,30.29
2019-06-07T12:32:15.357Z,30.36
2019-06-07T12:33:15.482Z,30.61
2019-06-07T12:34:15.526Z,30.93
2019-06-07T12:35:15.692Z,31.42
2019-06-07T12:36:15.940Z,31.64
2019-06-07T12:37:18.947Z,30.66
2019-06-07T12:38:17.381Z,30.81
2019-06-07T12:39:14.629Z,31.23
2019-06-07T12:40:22.312Z,30.79
2019-06-07T12:41:16.135Z,30.83
2019-06-07T12:42:14.965Z,30.76
2019-06-07T12:43:14.692Z,30.23
2019-06-07T12:44:14.671Z,29.47
2019-06-07T12:45:32.370Z,29.10
2019-06-07T12:46:21.023Z,29.30
2019-06-07T12:47:16.666Z,29.97
2019-06-07T12:48:17.655Z,30.28
2019-06-07T12:49:15.541Z,30.32
2019-06-07T12:50:15.403Z,30.37
2019-06-07T12:51:15.194Z,30.76
2019-06-07T12:52:17.407Z,30.72
2019-06-07T12:53:15.686Z,30.72
2019-06-07T12:54:15.439Z,30.81
2019-06-07T12:55:15.896Z,29.58
2019-06-07T12:56:15.664Z,29.42
2019-06-07T12:57:16.185Z,29.70
2019-06-07T12:58:15.801Z,30.26
2019-06-07T12:59:14.440Z,30.78
2019-06-07T13:00:14.424Z,30.61
2019-06-07T13:01:14.418Z,30.49
2019-06-07T13:02:14.424Z,29.88
2019-06-07T13:03:14.422Z,29.64
2019-06-07T13:04:14.472Z,29.52
2019-06-07T13:05:15.345Z,29.17
2019-06-07T13:06:15.400Z,28.88
2019-06-07T13:07:15.808Z,28.83
2019-06-07T13:08:15.523Z,28.58
2019-06-07T13:09:15.646Z,28.28